Terminal Aerodrome Forecast
Issued by NWS

Home | Current Version | Previous Version | Graphics & Text | Print | Product List | Glossary On
Versions: 1 2 3 4 5 6 7 8 9 10 11 12 13 14 15
730
FTUS43 KUNR 081731
TAFGCC
TAF
KGCC 081731Z 0818/0918 29011KT P6SM BKN200
     FM090000 29011KT P6SM SCT200 WS020/32040KT
     FM090600 29011KT P6SM SCT200=

USA.gov is the U.S. government's official web portal to all federal, state and local government web resources and services.